Weather at Tremp Heliport

Public forecast

Using degrees Celsius for public forecast. Weather courtesy of forecast.io.

Closest aviation weather report (METAR) to Tremp Heliport

Report is more than 2 hours old.

Closest report is Pirineus - la Seu d'Urgel Airport, 25.1 nm (46.5 km) ENE. Retrieved 2020/10/01 16:30 UTC (6 hours ago):

LESU 011630Z 19008KT 160V230 9999 BKN060 20/08 Q1007

Closest aviation forecast (TAF) to Tremp Heliport

Forecast is more than 6 hours old.

Closest forecast is Pirineus - la Seu d'Urgel Airport, 25.1 nm (46.5 km) ENE. Retrieved 2020/10/01 15:00 UTC (7 hours ago):

TAF LESU 011400Z 0115/0215 20010KT 9999 FEW060 TX16/0213Z TN01/0205Z BECMG 0118/0120 VRB04KT PROB30 TEMPO 0200/0203 4000 RA SHRA BKN010 FEW020TCU PROB40 TEMPO 0200/0215 2000 BR BKN005 PROB30 TEMPO 0202/0215 0500 FG VV001 TEMPO 0203/0215 4000 RA SHRA BKN009 FEW020TCU BECMG 0206/0208 20013KT